createdAt,value
2023-05-19T04:36:14.148Z,13.74
2023-05-19T04:38:54.913Z,13.74
2023-05-19T04:41:29.953Z,14.72
2023-05-19T04:44:05.096Z,14.37
2023-05-19T04:46:40.483Z,13.89
2023-05-19T04:49:15.177Z,13.62
2023-05-19T04:51:53.282Z,13.50
2023-05-19T04:54:29.909Z,13.50
2023-05-19T04:57:04.766Z,13.63
2023-05-19T04:59:40.028Z,13.63
2023-05-19T05:02:14.885Z,13.69
2023-05-19T05:04:50.010Z,13.65
2023-05-19T05:07:25.973Z,13.75
2023-05-19T05:10:01.359Z,13.72
2023-05-19T05:12:36.498Z,13.60
2023-05-19T05:15:12.648Z,14.26
2023-05-19T05:17:47.736Z,15.27
2023-05-19T05:20:23.434Z,14.42
2023-05-19T05:23:00.068Z,15.38
2023-05-19T05:25:35.935Z,14.88
2023-05-19T05:28:10.881Z,14.38
2023-05-19T05:30:46.543Z,14.20
2023-05-19T05:33:22.364Z,14.08
2023-05-19T05:35:57.472Z,14.03
2023-05-19T05:38:33.906Z,13.87
2023-05-19T05:41:08.619Z,13.77
2023-05-19T05:43:43.998Z,13.91
2023-05-19T05:46:18.801Z,13.92
2023-05-19T05:48:54.044Z,13.90
2023-05-19T05:51:29.547Z,13.95
2023-05-19T05:54:08.504Z,14.00
2023-05-19T05:56:43.938Z,14.07
2023-05-19T05:59:18.494Z,14.16
2023-05-19T06:02:59.650Z,14.33
2023-05-19T06:05:34.917Z,14.36
2023-05-19T06:08:09.334Z,14.26
2023-05-19T06:10:46.460Z,14.37
2023-05-19T06:13:24.225Z,14.30
2023-05-19T06:16:00.527Z,15.55
2023-05-19T06:18:38.114Z,15.87
2023-05-19T06:21:13.542Z,15.47
2023-05-19T06:23:48.406Z,15.31
2023-05-19T06:26:23.068Z,15.23
2023-05-19T06:28:57.664Z,15.22
2023-05-19T06:31:33.818Z,15.18
2023-05-19T06:34:12.601Z,15.21
2023-05-19T06:36:47.416Z,15.30
2023-05-19T06:39:22.018Z,15.37
2023-05-19T06:41:56.905Z,15.41
2023-05-19T06:44:32.166Z,15.53
2023-05-19T06:47:07.015Z,15.64
2023-05-19T06:49:43.236Z,15.65
2023-05-19T06:52:18.160Z,15.79
2023-05-19T06:54:52.573Z,15.77
2023-05-19T06:57:27.226Z,15.81
2023-05-19T07:00:01.820Z,15.87
2023-05-19T07:02:36.703Z,16.06
2023-05-19T07:05:12.776Z,16.19
2023-05-19T07:07:47.789Z,16.14
2023-05-19T07:10:23.225Z,16.86
2023-05-19T07:12:58.675Z,17.15
2023-05-19T07:15:33.874Z,17.03
2023-05-19T07:18:08.635Z,17.02
2023-05-19T07:20:44.572Z,16.62
2023-05-19T07:23:19.161Z,16.58
2023-05-19T07:25:57.354Z,16.28
2023-05-19T07:28:32.008Z,16.30
2023-05-19T07:31:06.793Z,16.34
2023-05-19T07:33:42.564Z,16.51
2023-05-19T07:36:18.352Z,16.64
2023-05-19T07:38:53.223Z,16.73
2023-05-19T07:41:27.667Z,16.97
2023-05-19T07:44:07.742Z,16.91
2023-05-19T07:46:42.375Z,16.88
2023-05-19T07:49:17.044Z,17.04
2023-05-19T07:51:52.894Z,17.20
2023-05-19T07:54:27.676Z,17.17
2023-05-19T07:57:01.974Z,17.25
2023-05-19T07:59:36.806Z,17.78
2023-05-19T08:02:11.232Z,18.04
2023-05-19T08:04:46.054Z,17.69
2023-05-19T08:07:21.886Z,17.61
2023-05-19T08:09:56.590Z,17.91
2023-05-19T08:12:30.939Z,17.57
2023-05-19T08:15:06.434Z,17.54
2023-05-19T08:17:40.973Z,17.91
2023-05-19T08:20:15.728Z,18.27
2023-05-19T08:22:51.725Z,18.46
2023-05-19T08:25:26.418Z,18.43
2023-05-19T08:28:01.273Z,18.07
2023-05-19T08:30:36.371Z,18.22
2023-05-19T08:33:10.942Z,18.17
2023-05-19T08:35:45.638Z,17.94
2023-05-19T08:38:21.406Z,18.08
2023-05-19T08:40:58.214Z,18.05
2023-05-19T08:43:32.701Z,18.04
2023-05-19T08:46:08.442Z,18.05
2023-05-19T08:48:45.518Z,18.25
2023-05-19T08:51:28.843Z,18.25
2023-05-19T08:54:18.149Z,18.38
2023-05-19T08:56:52.953Z,18.43
2023-05-19T08:59:27.906Z,18.65
2023-05-19T09:02:02.709Z,18.75
2023-05-19T09:04:37.578Z,18.67
2023-05-19T09:07:12.820Z,18.63
2023-05-19T09:09:48.646Z,18.95
2023-05-19T09:12:23.871Z,19.22
2023-05-19T09:14:59.439Z,19.25
2023-05-19T09:17:35.384Z,19.19
2023-05-19T09:20:12.126Z,19.18
2023-05-19T09:22:48.198Z,19.01
2023-05-19T09:25:24.964Z,19.36
2023-05-19T09:27:59.768Z,19.22
2023-05-19T09:30:34.974Z,19.12
2023-05-19T09:33:10.292Z,18.69
2023-05-19T09:35:48.666Z,19.28
2023-05-19T09:38:25.093Z,19.74
2023-05-19T09:41:02.241Z,20.00
2023-05-19T09:43:37.252Z,19.64
2023-05-19T09:46:14.475Z,19.19
2023-05-19T09:48:49.556Z,19.26
2023-05-19T09:51:23.904Z,19.18
2023-05-19T09:53:59.859Z,18.89
2023-05-19T09:56:37.501Z,19.17
2023-05-19T09:59:13.192Z,19.52
2023-05-19T10:01:48.418Z,19.51
2023-05-19T10:04:24.161Z,19.38
2023-05-19T10:07:00.575Z,19.56
2023-05-19T10:09:37.720Z,19.95
2023-05-19T10:12:14.597Z,20.44
2023-05-19T10:14:50.154Z,20.36
2023-05-19T10:17:26.514Z,20.73
2023-05-19T10:20:02.017Z,20.86
2023-05-19T10:22:36.736Z,20.46
2023-05-19T10:25:14.453Z,20.46
2023-05-19T10:27:55.877Z,20.94
2023-05-19T10:30:34.682Z,21.01
2023-05-19T10:33:13.510Z,20.15
2023-05-19T10:36:01.492Z,20.03
2023-05-19T10:38:44.262Z,20.61
2023-05-19T10:41:29.965Z,20.87
2023-05-19T10:44:19.126Z,21.20
2023-05-19T10:46:55.747Z,21.49
2023-05-19T10:49:39.339Z,21.74
2023-05-19T10:52:26.128Z,21.94
2023-05-19T10:55:02.293Z,21.50
2023-05-19T10:57:37.249Z,21.09
2023-05-19T11:00:29.865Z,20.93
2023-05-19T11:06:19.208Z,20.68
2023-05-19T11:09:00.820Z,20.23
2023-05-19T11:11:46.962Z,20.00
2023-05-19T11:14:23.246Z,20.39
2023-05-19T11:17:01.489Z,20.06
2023-05-19T11:19:37.228Z,19.89
2023-05-19T11:22:12.633Z,19.95
2023-05-19T11:24:50.661Z,20.36
2023-05-19T11:27:27.884Z,20.47
2023-05-19T11:30:05.546Z,20.39
2023-05-19T11:32:43.115Z,20.13
2023-05-19T11:35:21.568Z,20.01
2023-05-19T11:37:56.410Z,20.69
2023-05-19T11:40:32.209Z,21.38
2023-05-19T11:43:06.540Z,21.70
2023-05-19T11:45:41.259Z,21.91
2023-05-19T11:48:17.593Z,21.33
2023-05-19T11:50:52.584Z,20.85
2023-05-19T11:53:33.416Z,20.74
2023-05-19T11:56:09.870Z,20.33
2023-05-19T11:58:44.304Z,20.55
2023-05-19T12:01:19.396Z,21.11
2023-05-19T12:03:55.807Z,21.44
2023-05-19T12:06:31.257Z,21.82
2023-05-19T12:09:06.991Z,21.79
2023-05-19T12:11:41.737Z,21.96
2023-05-19T12:14:16.493Z,22.17
2023-05-19T12:16:50.983Z,22.25
2023-05-19T12:19:28.057Z,22.62
2023-05-19T12:22:04.038Z,21.87
2023-05-19T12:24:39.503Z,21.69
2023-05-19T12:27:18.696Z,21.68
2023-05-19T12:29:54.434Z,21.69
2023-05-19T12:32:29.846Z,21.50
2023-05-19T13:45:57.121Z,22.19
2023-05-19T13:48:32.523Z,21.80
2023-05-19T13:51:06.953Z,21.75
2023-05-19T13:53:42.568Z,21.58
2023-05-19T13:56:16.962Z,21.50
2023-05-19T13:58:51.691Z,21.66
2023-05-19T14:03:06.094Z,24.03
2023-05-19T14:05:41.103Z,24.03
2023-05-19T14:08:16.248Z,24.09
2023-05-19T14:10:52.329Z,23.97
2023-05-19T14:13:33.055Z,23.98
2023-05-19T14:16:10.166Z,23.63
2023-05-19T14:18:46.074Z,24.01
2023-05-19T14:21:21.062Z,24.32
2023-05-19T14:23:55.539Z,24.56
2023-05-19T14:26:30.227Z,24.80
2023-05-19T14:29:05.080Z,24.51
2023-05-19T14:31:39.836Z,23.78
2023-05-19T14:34:18.135Z,22.98
2023-05-19T14:36:52.839Z,23.07
2023-05-19T14:39:27.137Z,22.88
2023-05-19T14:42:01.910Z,22.55
2023-05-19T14:44:37.691Z,22.49
2023-05-19T14:47:12.745Z,22.56
2023-05-19T14:49:49.091Z,22.54
2023-05-19T14:52:24.527Z,22.74
2023-05-19T14:54:58.879Z,22.78
2023-05-19T14:57:33.568Z,22.61
2023-05-19T15:00:09.376Z,22.38
2023-05-19T15:02:46.462Z,22.28
2023-05-19T15:05:23.039Z,22.51
2023-05-19T15:07:57.715Z,22.88
2023-05-19T15:10:32.247Z,22.92
2023-05-19T15:13:07.000Z,23.35
2023-05-19T15:15:41.280Z,23.61
2023-05-19T15:18:18.865Z,23.79
2023-05-19T15:20:54.681Z,23.78
2023-05-19T15:23:29.593Z,23.96
2023-05-19T15:26:04.144Z,24.24
2023-05-19T15:28:38.917Z,24.51
2023-05-19T15:31:13.349Z,23.95
2023-05-19T15:33:48.098Z,23.65
2023-05-19T15:36:24.161Z,23.59
2023-05-19T15:38:58.804Z,23.25
2023-05-19T15:41:33.127Z,23.31
2023-05-19T15:44:08.302Z,23.64
2023-05-19T15:46:42.663Z,23.92
2023-05-19T15:49:18.048Z,23.74
2023-05-19T15:51:53.781Z,23.27
2023-05-19T15:54:28.429Z,23.11
2023-05-19T15:57:02.816Z,22.82
2023-05-19T15:59:37.621Z,22.32
2023-05-19T16:02:12.994Z,22.41
2023-05-19T16:04:47.850Z,22.71
2023-05-19T16:07:23.981Z,22.96
2023-05-19T16:09:58.724Z,23.09
2023-05-19T16:12:33.793Z,23.40
2023-05-19T16:15:09.352Z,23.75
2023-05-19T16:17:43.890Z,23.97
2023-05-19T16:20:18.726Z,24.20
2023-05-19T16:22:55.539Z,23.91
2023-05-19T16:25:30.283Z,24.11
2023-05-19T16:28:04.597Z,24.28
2023-05-19T16:30:39.331Z,24.09
2023-05-19T16:33:13.887Z,23.96
2023-05-19T16:35:48.555Z,24.09
2023-05-19T16:38:24.270Z,23.92
2023-05-19T16:40:59.041Z,23.76
2023-05-19T16:43:34.489Z,23.70
2023-05-19T16:46:10.043Z,23.79
2023-05-19T16:48:44.385Z,23.65
2023-05-19T16:51:19.101Z,23.67
2023-05-19T16:53:54.918Z,23.63
2023-05-19T16:56:29.679Z,23.68
2023-05-19T16:59:04.075Z,23.73
2023-05-19T17:01:39.598Z,23.58
2023-05-19T17:04:14.003Z,23.42
2023-05-19T17:06:48.748Z,23.32
2023-05-19T17:09:26.113Z,23.40
2023-05-19T17:12:00.972Z,23.18
2023-05-19T17:14:35.412Z,22.81
2023-05-19T17:17:10.254Z,22.39
2023-05-19T17:19:44.930Z,22.22
2023-05-19T17:22:19.738Z,22.41
2023-05-19T17:24:55.506Z,22.17
2023-05-19T17:27:30.258Z,21.84
2023-05-19T17:30:05.235Z,21.66
2023-05-19T17:32:40.043Z,21.41
2023-05-19T17:35:14.457Z,21.27
2023-05-19T17:37:49.210Z,20.95
2023-05-19T17:40:25.053Z,20.95
2023-05-19T17:42:59.734Z,20.84
2023-05-19T17:45:34.088Z,20.85
2023-05-19T17:48:08.983Z,20.68
2023-05-19T17:50:43.475Z,20.55
2023-05-19T17:53:18.516Z,20.50
2023-05-19T17:55:58.026Z,20.56
2023-05-19T17:58:33.344Z,20.32
2023-05-19T18:01:08.630Z,20.28
2023-05-19T18:03:49.496Z,20.28
2023-05-19T18:06:28.136Z,20.24
2023-05-19T18:09:08.073Z,20.13
2023-05-19T18:11:43.787Z,20.17
2023-05-19T18:14:18.573Z,20.05
2023-05-19T18:16:52.981Z,20.08
2023-05-19T18:19:27.742Z,20.01
2023-05-19T18:22:02.217Z,19.82
2023-05-19T18:24:36.931Z,19.62
2023-05-19T18:27:12.730Z,19.53
2023-05-19T18:29:47.440Z,19.39
2023-05-19T18:32:21.910Z,19.30
2023-05-19T18:34:56.631Z,19.08
2023-05-19T18:37:30.984Z,19.08
2023-05-19T18:40:06.391Z,19.19
2023-05-19T18:42:43.740Z,19.11
2023-05-19T18:45:18.591Z,19.07
2023-05-19T18:47:53.182Z,18.87
2023-05-19T18:50:27.987Z,18.68
2023-05-19T18:53:02.627Z,18.51
2023-05-19T18:55:38.472Z,18.48
2023-05-19T18:58:14.452Z,18.49
2023-05-19T19:00:49.182Z,18.54
2023-05-19T19:03:23.749Z,18.33
2023-05-19T19:05:59.078Z,18.22
2023-05-19T19:08:33.421Z,18.20
2023-05-19T19:11:11.350Z,18.00
2023-05-19T19:13:51.293Z,17.90
2023-05-19T19:16:25.854Z,17.95
2023-05-19T19:19:00.439Z,17.87
2023-05-19T19:21:35.275Z,17.89
2023-05-19T19:24:09.694Z,17.93
2023-05-19T19:26:44.418Z,17.83
2023-05-19T19:29:22.001Z,17.96
2023-05-19T19:31:57.055Z,17.80
2023-05-19T19:34:31.592Z,17.83
2023-05-19T19:37:06.413Z,17.89
2023-05-19T19:39:41.027Z,18.55
2023-05-19T19:42:15.784Z,18.80
2023-05-19T19:44:55.600Z,18.58
2023-05-19T19:47:30.307Z,18.16
2023-05-19T19:50:05.893Z,17.80
2023-05-19T19:52:40.905Z,17.64
2023-05-19T19:55:15.365Z,17.58
2023-05-19T19:57:51.414Z,17.35
2023-05-19T20:00:27.226Z,17.35
2023-05-19T20:03:05.474Z,17.07
2023-05-19T20:05:40.720Z,17.22
2023-05-19T20:08:16.203Z,17.30
2023-05-19T20:10:50.715Z,17.08
2023-05-19T20:13:25.381Z,16.99
2023-05-19T20:16:01.313Z,16.83
2023-05-19T20:18:35.998Z,16.77
2023-05-19T20:21:10.467Z,16.67
2023-05-19T20:23:45.149Z,17.07
2023-05-19T20:26:20.634Z,17.35
2023-05-19T20:28:55.950Z,16.92
2023-05-19T20:31:31.741Z,16.83
2023-05-19T20:34:06.421Z,16.51
2023-05-19T20:36:41.034Z,16.56
2023-05-19T20:39:15.813Z,16.59
2023-05-19T20:41:50.273Z,16.66
2023-05-19T20:44:24.967Z,16.68
2023-05-19T20:47:00.875Z,16.53
2023-05-19T20:49:35.689Z,16.51
2023-05-19T20:52:10.062Z,16.57
2023-05-19T20:54:45.539Z,16.47
2023-05-19T20:57:19.940Z,16.42
2023-05-19T20:59:54.655Z,16.35
2023-05-19T21:02:30.682Z,16.64
2023-05-19T21:05:05.861Z,17.09
2023-05-19T21:07:40.280Z,17.78
2023-05-19T21:10:15.012Z,18.20
2023-05-19T21:12:49.559Z,17.49
2023-05-19T21:15:24.785Z,17.32
2023-05-19T21:18:00.686Z,17.11
2023-05-19T21:20:35.591Z,16.98
2023-05-19T21:23:10.186Z,16.88
2023-05-19T21:25:45.566Z,16.75
2023-05-19T21:28:19.880Z,16.78
2023-05-19T21:30:54.665Z,16.83
2023-05-19T21:33:30.798Z,16.64
2023-05-19T21:36:06.015Z,16.37
2023-05-19T21:38:40.389Z,16.31
2023-05-19T21:41:15.006Z,16.27
2023-05-19T21:43:49.457Z,16.23
2023-05-19T21:46:24.150Z,16.23
2023-05-19T21:48:59.994Z,16.27
2023-05-19T21:51:35.869Z,16.30
2023-05-19T21:54:10.550Z,16.28
2023-05-19T21:56:45.238Z,16.35
2023-05-19T21:59:23.271Z,16.46
2023-05-19T22:03:03.766Z,16.98
2023-05-19T22:05:39.172Z,16.98
2023-05-19T22:08:13.523Z,16.42
2023-05-19T22:10:51.214Z,16.39
2023-05-19T22:13:25.776Z,16.31
2023-05-19T22:16:00.502Z,16.29
2023-05-19T22:18:36.620Z,16.38
2023-05-19T22:21:11.632Z,16.33
2023-05-19T22:23:46.163Z,16.29
2023-05-19T22:26:21.858Z,16.31
2023-05-19T22:28:56.840Z,16.42
2023-05-19T22:31:31.528Z,16.39
2023-05-19T22:34:07.311Z,16.18
2023-05-19T22:36:44.260Z,16.16
2023-05-19T22:39:18.599Z,16.21
2023-05-19T22:41:53.274Z,17.32
2023-05-19T22:44:27.672Z,17.80
2023-05-19T22:47:02.404Z,17.35
2023-05-19T22:49:38.271Z,16.96
2023-05-19T22:52:13.147Z,16.84
2023-05-19T22:54:47.486Z,16.69
2023-05-19T22:57:22.166Z,16.51
2023-05-19T22:59:56.559Z,16.27
2023-05-19T23:02:31.351Z,16.33
2023-05-19T23:05:07.992Z,16.34
2023-05-19T23:07:42.892Z,16.34
2023-05-19T23:10:17.357Z,16.31
2023-05-19T23:12:51.996Z,16.36
2023-05-19T23:15:26.311Z,16.03
2023-05-19T23:18:01.462Z,15.84
2023-05-19T23:20:37.281Z,15.63
2023-05-19T23:23:11.893Z,15.51
2023-05-19T23:25:46.279Z,15.27
2023-05-19T23:28:20.959Z,15.43
2023-05-19T23:30:55.572Z,15.70
2023-05-19T23:33:30.277Z,16.22
2023-05-19T23:36:09.621Z,15.77
2023-05-19T23:38:44.663Z,15.64
2023-05-19T23:41:19.006Z,15.41
2023-05-19T23:43:53.731Z,15.12
2023-05-19T23:46:28.094Z,15.04
2023-05-19T23:49:02.797Z,14.81
2023-05-19T23:51:38.617Z,14.84
2023-05-19T23:54:13.214Z,14.71
2023-05-19T23:56:47.776Z,14.66
2023-05-19T23:59:22.469Z,14.77
